createdAt,value
2022-11-12T00:02:08.647Z,20.57
2022-11-12T00:04:55.592Z,20.33
2022-11-12T00:07:41.890Z,20.43
2022-11-12T00:10:28.684Z,17.10
2022-11-12T00:13:15.497Z,19.13
2022-11-12T00:16:01.744Z,25.07
2022-11-12T00:18:48.769Z,19.80
2022-11-12T00:21:34.994Z,18.00
2022-11-12T00:24:21.229Z,20.33
2022-11-12T00:27:07.925Z,17.33
2022-11-12T00:29:53.682Z,24.97
2022-11-12T00:32:41.409Z,19.33
2022-11-12T00:35:34.388Z,23.43
2022-11-12T00:38:20.895Z,19.30
2022-11-12T00:41:07.772Z,20.70
2022-11-12T00:43:53.801Z,20.13
2022-11-12T00:46:39.495Z,18.57
2022-11-12T00:49:25.555Z,19.10
2022-11-12T00:52:12.032Z,20.20
2022-11-12T00:54:58.384Z,18.67
2022-11-12T00:57:44.827Z,15.50
2022-11-12T01:00:31.023Z,21.67
2022-11-12T01:03:18.382Z,16.37
2022-11-12T01:06:22.087Z,18.67
2022-11-12T01:09:09.843Z,14.93
2022-11-12T01:11:56.096Z,18.70
2022-11-12T01:14:42.153Z,18.60
2022-11-12T01:17:34.257Z,15.80
2022-11-12T01:20:21.666Z,17.07
2022-11-12T01:23:07.786Z,13.83
2022-11-12T01:25:54.637Z,15.13
2022-11-12T01:28:43.105Z,15.73
2022-11-12T01:31:38.311Z,16.53
2022-11-12T01:34:26.965Z,16.80
2022-11-12T01:37:13.106Z,13.57
2022-11-12T01:39:59.082Z,14.27
2022-11-12T01:42:54.368Z,15.67
2022-11-12T01:45:51.296Z,14.60
2022-11-12T01:49:22.105Z,13.57
2022-11-12T01:52:27.004Z,19.70
2022-11-12T01:55:25.519Z,17.33
2022-11-12T01:58:19.861Z,21.27
2022-11-12T02:01:06.172Z,17.93
2022-11-12T02:03:52.426Z,15.23
2022-11-12T02:06:42.153Z,18.07
2022-11-12T02:09:29.801Z,18.00
2022-11-12T02:12:36.204Z,17.97
2022-11-12T02:15:22.567Z,16.60
2022-11-12T02:18:10.121Z,15.17
2022-11-12T02:21:05.280Z,15.00
2022-11-12T02:24:02.867Z,14.73
2022-11-12T02:26:55.867Z,18.33
2022-11-12T02:29:46.487Z,17.13
2022-11-12T02:32:33.796Z,14.73
2022-11-12T02:35:20.122Z,14.80
2022-11-12T02:38:08.777Z,12.40
2022-11-12T02:40:55.481Z,12.23
2022-11-12T02:43:43.989Z,15.30
2022-11-12T02:46:30.059Z,12.73
2022-11-12T02:49:16.825Z,14.50
2022-11-12T02:52:02.920Z,15.53
2022-11-12T02:54:49.255Z,19.87
2022-11-12T02:57:36.416Z,14.53
2022-11-12T03:00:22.275Z,15.13
2022-11-12T03:03:08.201Z,14.90
2022-11-12T03:06:01.873Z,12.23
2022-11-12T03:08:48.291Z,16.00
2022-11-12T03:11:34.570Z,13.73
2022-11-12T03:14:21.099Z,14.07
2022-11-12T03:17:07.073Z,15.00
2022-11-12T03:19:54.626Z,17.13
2022-11-12T03:22:41.994Z,19.33
2022-11-12T03:25:30.736Z,16.80
2022-11-12T03:28:17.855Z,12.13
2022-11-12T03:31:04.012Z,18.30
2022-11-12T03:33:50.360Z,13.50
2022-11-12T03:36:36.343Z,14.73
2022-11-12T03:39:22.298Z,16.43
2022-11-12T03:42:08.621Z,18.83
2022-11-12T03:44:54.843Z,15.97
2022-11-12T03:47:49.386Z,13.93
2022-11-12T03:50:35.904Z,13.43
2022-11-12T03:53:22.100Z,15.30
2022-11-12T03:56:08.684Z,14.77
2022-11-12T03:58:55.054Z,10.70
2022-11-12T04:01:41.950Z,11.83
2022-11-12T04:04:48.169Z,13.60
2022-11-12T04:07:52.586Z,16.63
2022-11-12T04:10:39.118Z,15.50
2022-11-12T04:13:28.224Z,14.57
2022-11-12T04:16:40.832Z,19.97
2022-11-12T04:19:45.771Z,12.77
2022-11-12T04:22:32.255Z,12.73
2022-11-12T04:25:36.970Z,17.63
2022-11-12T04:28:22.914Z,14.53
2022-11-12T04:31:09.082Z,19.90
2022-11-12T04:33:55.747Z,15.50
2022-11-12T04:36:42.062Z,21.43
2022-11-12T04:39:28.481Z,13.53
2022-11-12T04:42:46.361Z,16.10
2022-11-12T04:45:32.443Z,17.47
2022-11-12T04:48:19.664Z,15.43
2022-11-12T04:51:26.951Z,17.67
2022-11-12T04:54:13.143Z,15.00
2022-11-12T04:56:59.774Z,15.57
2022-11-12T04:59:46.862Z,16.93
2022-11-12T05:02:32.942Z,14.77
2022-11-12T05:05:19.961Z,18.53
2022-11-12T05:08:06.308Z,17.53
2022-11-12T05:10:52.762Z,15.40
2022-11-12T05:13:38.780Z,17.50
2022-11-12T05:16:26.060Z,16.53
2022-11-12T05:19:15.981Z,18.77
2022-11-12T05:22:05.914Z,16.37
2022-11-12T05:24:52.432Z,16.40
2022-11-12T05:27:38.743Z,14.63
2022-11-12T05:30:24.859Z,16.13
2022-11-12T05:33:11.016Z,13.50
2022-11-12T05:35:57.765Z,17.93
2022-11-12T05:38:43.938Z,16.80
2022-11-12T05:41:51.065Z,19.93
2022-11-12T05:44:37.659Z,18.50
2022-11-12T05:47:23.974Z,15.20
2022-11-12T05:50:10.142Z,17.07
2022-11-12T05:52:56.315Z,16.97
2022-11-12T05:55:42.516Z,17.50
2022-11-12T05:58:29.188Z,19.50
2022-11-12T06:01:15.357Z,15.70
2022-11-12T06:04:01.974Z,16.50
2022-11-12T06:06:48.097Z,14.77
2022-11-12T06:09:34.362Z,15.10
2022-11-12T06:12:20.609Z,16.43
2022-11-12T06:15:08.133Z,17.90
2022-11-12T06:17:55.363Z,14.50
2022-11-12T06:20:41.801Z,13.17
2022-11-12T06:23:28.262Z,13.83
2022-11-12T06:26:14.652Z,14.17
2022-11-12T06:29:00.488Z,16.53
2022-11-12T06:31:46.688Z,12.57
2022-11-12T06:34:33.464Z,14.37
2022-11-12T06:37:22.110Z,13.40
2022-11-12T06:40:09.267Z,13.57
2022-11-12T06:42:59.659Z,17.23
2022-11-12T06:45:45.508Z,16.50
2022-11-12T06:48:32.161Z,14.33
2022-11-12T06:51:21.704Z,15.90
2022-11-12T06:54:07.995Z,17.70
2022-11-12T06:56:54.218Z,15.07
2022-11-12T06:59:40.670Z,18.60
2022-11-12T07:02:27.223Z,16.13
2022-11-12T07:05:16.937Z,15.70
2022-11-12T07:08:07.350Z,19.73
2022-11-12T07:10:58.115Z,17.97
2022-11-12T07:13:46.210Z,19.03
2022-11-12T07:16:32.761Z,20.97
2022-11-12T07:19:19.092Z,17.40
2022-11-12T07:22:04.883Z,21.27
2022-11-12T07:24:51.422Z,21.50
2022-11-12T07:27:37.261Z,20.07
2022-11-12T07:30:23.381Z,20.73
2022-11-12T07:33:09.456Z,18.97
2022-11-12T07:36:14.066Z,19.90
2022-11-12T07:39:00.353Z,20.60
2022-11-12T07:41:46.563Z,21.60
2022-11-12T07:44:32.614Z,20.83
2022-11-12T07:47:18.758Z,22.73
2022-11-12T07:50:05.674Z,19.83
2022-11-12T07:52:51.590Z,19.80
2022-11-12T07:55:37.612Z,18.80
2022-11-12T07:58:31.861Z,24.97
2022-11-12T08:01:41.700Z,21.30
2022-11-12T08:04:29.483Z,22.63
2022-11-12T08:07:15.728Z,24.57
2022-11-12T08:10:01.967Z,24.33
2022-11-12T08:12:48.092Z,24.50
2022-11-12T08:15:34.916Z,25.10
2022-11-12T08:18:20.998Z,22.73
2022-11-12T08:21:13.525Z,23.00
2022-11-12T08:23:59.654Z,22.53
2022-11-12T08:26:46.015Z,16.83
2022-11-12T08:29:32.287Z,20.43
2022-11-12T08:32:18.472Z,19.00
2022-11-12T08:35:05.052Z,16.00
2022-11-12T08:37:51.412Z,16.60
2022-11-12T08:40:38.460Z,11.50
2022-11-12T08:43:24.430Z,11.63
2022-11-12T08:46:11.061Z,15.27
2022-11-12T08:48:57.297Z,13.87
2022-11-12T08:51:43.667Z,11.87
2022-11-12T08:54:30.504Z,11.23
2022-11-12T08:57:16.597Z,11.30
2022-11-12T09:00:03.494Z,13.37
2022-11-12T09:02:49.296Z,13.90
2022-11-12T09:05:36.849Z,11.53
2022-11-12T09:08:25.985Z,13.17
2022-11-12T09:11:12.130Z,12.13
2022-11-12T09:13:57.949Z,15.57
2022-11-12T09:16:44.287Z,12.23
2022-11-12T09:19:30.481Z,13.43
2022-11-12T09:22:16.916Z,12.03
2022-11-12T09:25:03.520Z,13.10
2022-11-12T09:27:49.812Z,15.20
2022-11-12T09:30:43.407Z,15.83
2022-11-12T09:33:34.054Z,11.63
2022-11-12T09:36:20.148Z,13.60
2022-11-12T09:39:06.516Z,14.70
2022-11-12T09:41:55.547Z,11.17
2022-11-12T09:45:12.008Z,10.10
2022-11-12T09:48:09.238Z,10.87
2022-11-12T09:51:13.519Z,10.80
2022-11-12T09:54:21.534Z,10.73
2022-11-12T09:57:13.737Z,11.23
2022-11-12T10:00:00.113Z,10.83
2022-11-12T10:03:15.820Z,10.27
2022-11-12T10:06:22.004Z,10.63
2022-11-12T10:09:58.070Z,7.93
2022-11-12T10:14:08.891Z,10.13
2022-11-12T10:17:39.929Z,10.43
2022-11-12T10:20:59.383Z,7.73
2022-11-12T10:23:53.323Z,8.07
2022-11-12T10:26:41.083Z,8.27
2022-11-12T10:29:52.057Z,10.47
2022-11-12T10:32:38.292Z,11.20
2022-11-12T10:35:25.033Z,11.50
2022-11-12T10:38:26.497Z,10.83
2022-11-12T10:41:28.698Z,8.10
2022-11-12T10:44:16.012Z,9.10
2022-11-12T10:47:46.812Z,11.63
2022-11-12T10:50:42.115Z,10.17
2022-11-12T10:53:40.726Z,7.40
2022-11-12T10:56:32.613Z,7.53
2022-11-12T10:59:26.375Z,8.07
2022-11-12T11:02:19.500Z,9.37
2022-11-12T11:06:14.214Z,8.87
2022-11-12T11:09:30.012Z,5.57
2022-11-12T11:12:34.830Z,18.73
2022-11-12T11:15:24.389Z,6.40
2022-11-12T11:18:14.769Z,6.00
2022-11-12T11:21:57.043Z,7.60
2022-11-12T11:25:27.805Z,6.43
2022-11-12T11:28:57.702Z,7.53
2022-11-12T11:32:45.603Z,6.77
2022-11-12T11:36:24.848Z,8.97
2022-11-12T11:40:21.535Z,6.93
2022-11-12T11:44:00.606Z,6.93
2022-11-12T11:47:59.374Z,6.80
2022-11-12T11:51:26.111Z,6.30
2022-11-12T11:55:13.960Z,7.30
2022-11-12T11:58:42.659Z,8.30
2022-11-12T12:02:28.311Z,8.10
2022-11-12T12:05:51.798Z,5.70
2022-11-12T12:10:15.614Z,9.83
2022-11-12T12:13:44.916Z,7.90
2022-11-12T12:17:25.566Z,6.67
2022-11-12T12:21:07.612Z,5.13
2022-11-12T12:24:25.967Z,6.40
2022-11-12T12:27:34.920Z,6.67
2022-11-12T12:30:25.745Z,5.00
2022-11-12T12:34:06.586Z,7.20
2022-11-12T12:37:38.732Z,6.00
2022-11-12T12:41:48.213Z,6.43
2022-11-12T12:45:18.917Z,6.30
2022-11-12T12:48:31.626Z,4.80
2022-11-12T12:51:26.058Z,3.93
2022-11-12T12:54:51.988Z,5.00
2022-11-12T12:57:41.482Z,6.33
2022-11-12T13:00:41.688Z,7.00
2022-11-12T13:04:04.569Z,6.50
2022-11-12T13:06:50.633Z,6.53
2022-11-12T13:09:36.792Z,6.13
2022-11-12T13:13:30.636Z,5.97
2022-11-12T13:16:50.529Z,7.03
2022-11-12T13:19:53.955Z,10.33
2022-11-12T13:22:40.070Z,7.70
2022-11-12T13:25:32.275Z,5.23
2022-11-12T13:28:19.095Z,6.17
2022-11-12T13:31:29.905Z,8.10
2022-11-12T13:34:33.644Z,6.57
2022-11-12T13:37:23.373Z,6.60
2022-11-12T13:40:30.897Z,5.87
2022-11-12T13:43:39.195Z,5.33
2022-11-12T13:46:33.518Z,3.93
2022-11-12T13:49:20.329Z,5.17
2022-11-12T13:52:07.110Z,6.60
2022-11-12T13:55:20.262Z,5.77
2022-11-12T13:58:34.533Z,9.30
2022-11-12T14:01:25.109Z,6.10
2022-11-12T14:04:21.765Z,6.30
2022-11-12T14:07:55.103Z,6.20
2022-11-12T14:11:52.783Z,8.73
2022-11-12T14:15:06.837Z,5.93
2022-11-12T14:18:44.869Z,7.07
2022-11-12T14:21:31.391Z,5.73
2022-11-12T14:24:17.334Z,5.83
2022-11-12T14:27:03.211Z,6.67
2022-11-12T14:29:49.770Z,8.43
2022-11-12T14:32:45.366Z,7.07
2022-11-12T14:35:39.812Z,5.50
2022-11-12T14:38:55.883Z,6.60
2022-11-12T14:41:47.704Z,8.03
2022-11-12T14:44:38.579Z,5.17
2022-11-12T14:47:24.931Z,9.50
2022-11-12T14:50:39.044Z,7.60
2022-11-12T14:53:46.212Z,12.07
2022-11-12T14:56:47.584Z,10.60
2022-11-12T14:59:34.136Z,9.40
2022-11-12T15:02:47.204Z,11.10
2022-11-12T15:06:04.527Z,11.37
2022-11-12T15:08:59.862Z,10.37
2022-11-12T15:11:50.011Z,18.33
2022-11-12T15:14:37.064Z,12.33
2022-11-12T15:17:37.428Z,9.37
2022-11-12T15:20:24.160Z,10.13
2022-11-12T15:23:20.481Z,14.03
2022-11-12T15:26:38.685Z,10.20
2022-11-12T15:29:36.134Z,14.00
2022-11-12T15:32:22.193Z,10.80
2022-11-12T15:35:34.768Z,11.40
2022-11-12T15:38:38.220Z,11.20
2022-11-12T15:41:34.302Z,16.97
2022-11-12T15:44:21.449Z,14.73
2022-11-12T15:47:23.992Z,17.33
2022-11-12T15:50:22.710Z,15.53
2022-11-12T15:53:09.388Z,16.47
2022-11-12T15:55:56.663Z,17.37
2022-11-12T15:58:43.038Z,25.40
2022-11-12T16:01:29.265Z,25.20
2022-11-12T16:04:15.709Z,21.17
2022-11-12T16:07:02.319Z,18.70
2022-11-12T16:09:48.897Z,13.73
2022-11-12T16:12:35.471Z,16.70
2022-11-12T16:15:25.636Z,13.43
2022-11-12T16:18:13.051Z,20.77
2022-11-12T16:20:59.030Z,17.10
2022-11-12T16:23:45.015Z,16.87
2022-11-12T16:26:33.797Z,15.43
2022-11-12T16:29:20.117Z,16.07
2022-11-12T16:32:07.249Z,14.30
2022-11-12T16:34:57.004Z,18.27
2022-11-12T16:37:48.715Z,13.20
2022-11-12T16:40:36.341Z,16.23
2022-11-12T16:43:22.831Z,13.30
2022-11-12T16:46:30.217Z,21.43
2022-11-12T16:49:16.783Z,19.93
2022-11-12T16:52:02.826Z,16.50
2022-11-12T16:54:50.189Z,14.77
2022-11-12T16:57:37.437Z,19.53
2022-11-12T17:00:23.703Z,15.47
2022-11-12T17:03:13.992Z,16.67
2022-11-12T17:06:00.470Z,20.53
2022-11-12T17:08:48.241Z,17.90
2022-11-12T17:11:36.229Z,16.63
2022-11-12T17:14:27.959Z,16.53
2022-11-12T17:17:14.803Z,16.73
2022-11-12T17:20:01.040Z,16.20
2022-11-12T17:22:46.955Z,18.53
2022-11-12T17:25:32.914Z,15.43
2022-11-12T17:28:19.394Z,13.90
2022-11-12T17:31:21.234Z,17.00
2022-11-12T17:34:07.439Z,13.20
2022-11-12T17:36:54.115Z,23.40
2022-11-12T17:39:40.138Z,17.00
2022-11-12T17:42:26.442Z,16.30
2022-11-12T17:45:12.907Z,14.17
2022-11-12T17:47:58.834Z,13.77
2022-11-12T17:50:45.887Z,13.27
2022-11-12T17:53:31.823Z,19.37
2022-11-12T17:56:23.466Z,18.83
2022-11-12T17:59:10.029Z,17.40
2022-11-12T18:01:57.003Z,18.23
2022-11-12T18:04:43.299Z,17.80
2022-11-12T18:07:29.268Z,16.53
2022-11-12T18:10:19.366Z,19.00
2022-11-12T18:13:05.658Z,20.33
2022-11-12T18:15:51.848Z,19.90
2022-11-12T18:18:37.910Z,19.57
2022-11-12T18:21:27.128Z,17.37
2022-11-12T18:24:16.776Z,19.40
2022-11-12T18:27:02.682Z,20.90
2022-11-12T18:29:48.620Z,18.37
2022-11-12T18:32:35.744Z,24.30
2022-11-12T18:35:24.690Z,23.17
2022-11-12T18:38:15.029Z,19.27
2022-11-12T18:41:17.899Z,20.43
2022-11-12T18:44:04.384Z,20.40
2022-11-12T18:46:51.320Z,24.03
2022-11-12T18:49:37.382Z,22.00
2022-11-12T18:52:23.505Z,21.70
2022-11-12T18:55:10.610Z,20.00
2022-11-12T18:57:56.870Z,25.03
2022-11-12T19:00:43.246Z,21.27
2022-11-12T19:03:29.664Z,26.70
2022-11-12T19:06:16.786Z,22.80
2022-11-12T19:09:04.211Z,21.90
2022-11-12T19:11:50.535Z,23.30
2022-11-12T19:14:36.815Z,24.33
2022-11-12T19:17:28.241Z,21.37
2022-11-12T19:20:17.382Z,17.23
2022-11-12T19:23:03.860Z,19.90
2022-11-12T19:25:50.318Z,19.07
2022-11-12T19:28:36.747Z,20.03
2022-11-12T19:31:28.308Z,17.53
2022-11-12T19:34:14.786Z,22.57
2022-11-12T19:40:09.023Z,16.90
2022-11-12T19:42:54.929Z,18.33
2022-11-12T19:45:41.033Z,24.23
2022-11-12T19:48:27.612Z,18.00
2022-11-12T19:51:14.321Z,21.20
2022-11-12T19:54:02.126Z,19.23
2022-11-12T19:56:48.185Z,18.90
2022-11-12T19:59:34.195Z,17.03
2022-11-12T20:02:20.504Z,18.67
2022-11-12T20:05:07.115Z,23.70
2022-11-12T20:07:53.688Z,20.07
2022-11-12T20:10:40.304Z,19.63
2022-11-12T20:13:27.754Z,16.60
2022-11-12T20:16:23.877Z,22.77
2022-11-12T20:19:11.583Z,18.53
2022-11-12T20:21:57.887Z,17.63
2022-11-12T20:24:43.748Z,18.50
2022-11-12T20:27:30.133Z,20.13
2022-11-12T20:30:16.928Z,21.03
2022-11-12T20:33:03.110Z,22.50
2022-11-12T20:35:49.992Z,24.33
2022-11-12T20:38:43.725Z,21.40
2022-11-12T20:41:31.377Z,20.63
2022-11-12T20:44:17.575Z,22.47
2022-11-12T20:47:03.986Z,20.90
2022-11-12T20:49:50.209Z,19.57
2022-11-12T20:52:36.477Z,18.63
2022-11-12T20:55:22.233Z,17.80
2022-11-12T20:58:08.511Z,21.63
2022-11-12T21:00:54.735Z,18.20
2022-11-12T21:03:43.500Z,20.60
2022-11-12T21:06:30.510Z,20.33
2022-11-12T21:09:16.990Z,21.37
2022-11-12T21:12:02.938Z,17.90
2022-11-12T21:14:50.566Z,19.80
2022-11-12T21:17:37.052Z,17.93
2022-11-12T21:20:23.578Z,16.90
2022-11-12T21:23:09.739Z,21.33
2022-11-12T21:26:01.680Z,19.63
2022-11-12T21:28:55.563Z,20.47
2022-11-12T21:31:41.538Z,19.60
2022-11-12T21:34:27.684Z,22.20
2022-11-12T21:37:14.035Z,21.40
2022-11-12T21:40:00.374Z,23.73
2022-11-12T21:42:47.372Z,20.83
2022-11-12T21:45:33.650Z,20.23
2022-11-12T21:48:19.663Z,19.10
2022-11-12T21:51:20.062Z,19.67
2022-11-12T21:54:08.358Z,21.00
2022-11-12T21:56:54.925Z,22.80
2022-11-12T21:59:43.055Z,21.57
2022-11-12T22:02:29.082Z,19.70
2022-11-12T22:05:15.471Z,29.17
2022-11-12T22:08:01.791Z,24.47
2022-11-12T22:10:48.121Z,23.30
2022-11-12T22:13:36.195Z,19.00
2022-11-12T22:16:27.684Z,27.90
2022-11-12T22:19:14.863Z,25.90
2022-11-12T22:22:01.040Z,22.57
2022-11-12T22:24:47.593Z,21.23
2022-11-12T22:27:34.156Z,22.87
2022-11-12T22:30:20.493Z,25.17
2022-11-12T22:33:06.829Z,24.27
2022-11-12T22:35:53.085Z,24.30
2022-11-12T22:38:46.760Z,24.53
2022-11-12T22:41:34.174Z,24.10
2022-11-12T22:44:20.155Z,26.47
2022-11-12T22:47:06.381Z,28.00
2022-11-12T22:49:52.852Z,29.00
2022-11-12T22:52:38.725Z,26.37
2022-11-12T22:55:25.185Z,27.50
2022-11-12T22:58:11.998Z,28.43
2022-11-12T23:00:58.109Z,25.60
2022-11-12T23:03:44.765Z,24.53
2022-11-12T23:06:31.860Z,21.60
2022-11-12T23:09:18.058Z,22.07
2022-11-12T23:12:04.524Z,24.27
2022-11-12T23:14:51.095Z,23.17
2022-11-12T23:17:37.510Z,21.90
2022-11-12T23:20:23.891Z,23.13
2022-11-12T23:23:10.260Z,24.27
2022-11-12T23:26:12.767Z,20.70
2022-11-12T23:28:59.934Z,24.10
2022-11-12T23:31:45.935Z,22.53
2022-11-12T23:34:32.064Z,26.43
2022-11-12T23:37:17.863Z,22.80
2022-11-12T23:40:05.720Z,21.93
2022-11-12T23:42:54.177Z,18.00
2022-11-12T23:45:40.268Z,17.60
2022-11-12T23:48:27.384Z,18.57
2022-11-12T23:51:21.656Z,21.40
2022-11-12T23:54:09.102Z,21.43
2022-11-12T23:56:55.121Z,18.53
2022-11-12T23:59:41.066Z,21.37
